Time,TemperatureF,DewpointF,PressureIn,WindDirection,WindDirectionDegrees,WindSpeedMPH,WindSpeedGustMPH,Humidity,HourlyPrecipIn,Conditions,Clouds,dailyrainin,SoftwareType,DateUTC
2013-07-13 00:02:00,76.6,63.5,29.85,North,0,6.9,6.9,64,0.00,CLR,,0.00,WeatherDisplay:10.37,2013-07-13 05:02:00,
2013-07-13 00:08:00,76.5,63.4,29.85,NNE,22,4.6,4.6,64,0.00,CLR,,0.00,WeatherDisplay:10.37,2013-07-13 05:08:00,
2013-07-13 00:13:00,76.5,63.4,29.85,North,0,4.6,4.6,64,0.00,CLR,,0.00,WeatherDisplay:10.37,2013-07-13 05:13:00,
2013-07-13 00:18:00,76.5,63.4,29.88,NNE,22,6.9,6.9,64,0.00,CLR,,0.00,WeatherDisplay:10.37,2013-07-13 05:18:00,
2013-07-13 00:23:00,76.5,62.9,29.88,ENE,68,5.8,5.8,63,0.00,CLR,,0.00,WeatherDisplay:10.37,2013-07-13 05:23:00,
2013-07-13 00:28:00,76.5,62.5,29.88,North,0,4.7,4.7,62,0.00,CLR,,0.00,WeatherDisplay:10.37,2013-07-13 05:28:00,
2013-07-13 00:33:00,76.5,62.5,29.85,North,0,5.8,5.8,62,0.00,CLR,,0.00,WeatherDisplay:10.37,2013-07-13 05:33:00,
2013-07-13 00:38:00,76.3,61.8,29.85,North,0,6.9,6.9,61,0.00,CLR,,0.00,WeatherDisplay:10.37,2013-07-13 05:38:00,
2013-07-13 00:43:00,76.3,61.4,29.85,NNE,22,4.6,4.6,60,0.00,CLR,,0.00,WeatherDisplay:10.37,2013-07-13 05:43:00,
2013-07-13 00:48:00,76.1,61.2,29.85,North,0,4.6,4.6,60,0.00,CLR,,0.00,WeatherDisplay:10.37,2013-07-13 05:48:00,
2013-07-13 00:53:00,76.1,61.2,29.85,North,0,4.6,4.6,60,0.00,CLR,,0.00,WeatherDisplay:10.37,2013-07-13 05:53:00,
2013-07-13 00:58:00,75.9,61.0,29.85,North,0,3.5,3.5,60,0.00,CLR,,0.00,WeatherDisplay:10.37,2013-07-13 05:58:00,
2013-07-13 01:03:00,75.7,60.4,29.85,NW,315,2.3,2.3,59,0.00,CLR,,0.00,WeatherDisplay:10.37,2013-07-13 06:03:00,
2013-07-13 01:08:00,75.6,60.2,29.85,NE,45,3.5,3.5,59,0.00,CLR,,0.00,WeatherDisplay:10.37,2013-07-13 06:08:00,
2013-07-13 01:13:00,75.6,60.2,29.85,North,0,3.6,3.6,59,0.00,CLR,,0.00,WeatherDisplay:10.37,2013-07-13 06:13:00,
2013-07-13 01:18:00,75.4,60.1,29.85,NNE,22,3.6,3.6,59,0.00,CLR,,0.00,WeatherDisplay:10.37,2013-07-13 06:18:00,
2013-07-13 01:23:00,75.2,59.9,29.85,NNW,338,3.8,3.8,59,0.00,CLR,,0.00,WeatherDisplay:10.37,2013-07-13 06:23:00,
2013-07-13 01:28:00,75.2,59.9,29.85,North,0,4.6,4.6,59,0.00,CLR,,0.00,WeatherDisplay:10.37,2013-07-13 06:28:00,
2013-07-13 01:33:00,75.2,59.9,29.85,North,0,5.8,5.8,59,0.00,CLR,,0.00,WeatherDisplay:10.37,2013-07-13 06:33:00,
2013-07-13 01:38:00,75.0,59.7,29.85,North,0,4.0,4.0,59,0.00,CLR,,0.00,WeatherDisplay:10.37,2013-07-13 06:38:00,
2013-07-13 01:43:00,75.0,59.7,29.85,NNW,338,3.5,3.5,59,0.00,CLR,,0.00,WeatherDisplay:10.37,2013-07-13 06:43:00,
2013-07-13 01:48:00,74.8,59.5,29.85,NNE,22,3.5,3.5,59,0.00,CLR,,0.00,WeatherDisplay:10.37,2013-07-13 06:48:00,
2013-07-13 01:53:00,74.8,59.5,29.85,North,0,3.5,3.5,59,0.00,CLR,,0.00,WeatherDisplay:10.37,2013-07-13 06:53:00,
2013-07-13 01:58:00,74.8,60.0,29.85,North,0,3.5,3.5,60,0.00,CLR,,0.00,WeatherDisplay:10.37,2013-07-13 06:58:00,
2013-07-13 02:03:00,74.8,59.5,29.88,North,0,4.6,4.6,59,0.00,CLR,,0.00,WeatherDisplay:10.37,2013-07-13 07:03:00,
2013-07-13 02:08:00,74.8,59.5,29.88,NNW,338,3.5,3.5,59,0.00,CLR,,0.00,WeatherDisplay:10.37,2013-07-13 07:08:00,
2013-07-13 02:13:00,74.7,59.9,29.88,North,0,3.5,3.5,60,0.00,CLR,,0.00,WeatherDisplay:10.37,2013-07-13 07:13:00,
2013-07-13 02:18:00,74.7,59.9,29.88,North,0,2.6,2.6,60,0.00,CLR,,0.00,WeatherDisplay:10.37,2013-07-13 07:18:00,
2013-07-13 02:23:00,74.5,59.7,29.88,North,0,2.3,2.3,60,0.00,CLR,,0.00,WeatherDisplay:10.37,2013-07-13 07:23:00,
2013-07-13 02:28:00,74.3,60.0,29.88,NNW,338,2.4,2.4,61,0.00,CLR,,0.00,WeatherDisplay:10.37,2013-07-13 07:28:00,
2013-07-13 02:33:00,74.3,60.0,29.88,NNW,338,3.5,3.5,61,0.00,CLR,,0.00,WeatherDisplay:10.37,2013-07-13 07:33:00,
2013-07-13 02:38:00,74.1,60.3,29.88,North,0,2.4,2.4,62,0.00,CLR,,0.00,WeatherDisplay:10.37,2013-07-13 07:38:00,
2013-07-13 02:43:00,74.1,60.3,29.85,NE,45,2.4,2.4,62,0.00,CLR,,0.00,WeatherDisplay:10.37,2013-07-13 07:43:00,
2013-07-13 02:48:00,73.9,60.1,29.85,NNW,338,2.3,2.3,62,0.00,CLR,,0.00,WeatherDisplay:10.37,2013-07-13 07:48:00,
2013-07-13 02:53:00,73.8,60.4,29.85,NW,315,2.3,2.3,63,0.00,CLR,,0.00,WeatherDisplay:10.37,2013-07-13 07:53:00,
2013-07-13 02:58:00,73.6,60.2,29.85,North,0,3.5,3.5,63,0.00,CLR,,0.00,WeatherDisplay:10.37,2013-07-13 07:58:00,
2013-07-13 03:03:00,73.6,60.6,29.85,North,0,1.1,1.1,64,0.00,CLR,,0.00,WeatherDisplay:10.37,2013-07-13 08:03:00,
2013-07-13 03:08:00,73.4,60.9,29.85,NW,315,1.1,0.0,65,0.00,CLR,,0.00,WeatherDisplay:10.37,2013-07-13 08:08:00,
2013-07-13 03:13:00,73.4,60.9,29.88,NW,315,2.3,2.3,65,0.00,CLR,,0.00,WeatherDisplay:10.37,2013-07-13 08:13:00,
2013-07-13 03:18:00,73.2,61.2,29.88,NW,315,1.1,0.0,66,0.00,CLR,,0.00,WeatherDisplay:10.37,2013-07-13 08:18:00,
2013-07-13 03:23:00,73.0,61.4,29.88,WSW,248,1.1,0.0,67,0.00,CLR,,0.00,WeatherDisplay:10.37,2013-07-13 08:23:00,
2013-07-13 03:28:00,72.9,61.7,29.85,ENE,68,2.2,0.0,68,0.00,CLR,,0.00,WeatherDisplay:10.37,2013-07-13 08:28:00,
2013-07-13 03:33:00,72.7,61.9,29.85,ENE,68,1.1,0.0,69,0.00,CLR,,0.00,WeatherDisplay:10.37,2013-07-13 08:33:00,
2013-07-13 03:38:00,72.7,62.3,29.85,North,0,1.1,0.0,70,0.00,CLR,,0.00,WeatherDisplay:10.37,2013-07-13 08:38:00,
2013-07-13 03:43:00,72.3,62.4,29.88,NNE,22,0.0,0.0,71,0.00,CLR,,0.00,WeatherDisplay:10.37,2013-07-13 08:43:00,
2013-07-13 03:48:00,72.1,63.0,29.88,North,0,1.1,0.0,73,0.00,CLR,,0.00,WeatherDisplay:10.37,2013-07-13 08:48:00,
2013-07-13 03:53:00,72.0,63.2,29.88,NE,45,0.0,0.0,74,0.00,CLR,,0.00,WeatherDisplay:10.37,2013-07-13 08:53:00,
2013-07-13 03:58:00,71.8,63.4,29.88,North,0,0.0,0.0,75,0.00,CLR,,0.00,WeatherDisplay:10.37,2013-07-13 08:58:00,
2013-07-13 04:03:00,71.6,63.6,29.88,North,0,1.4,1.4,76,0.00,CLR,,0.00,WeatherDisplay:10.37,2013-07-13 09:03:00,
2013-07-13 04:08:00,71.4,63.8,29.88,NNW,338,1.1,0.0,77,0.00,CLR,,0.00,WeatherDisplay:10.37,2013-07-13 09:08:00,
2013-07-13 04:13:00,71.2,64.0,29.85,NW,315,0.0,0.0,78,0.00,CLR,,0.00,WeatherDisplay:10.37,2013-07-13 09:13:00,
2013-07-13 04:18:00,71.2,64.4,29.85,ESE,112,0.0,0.0,79,0.00,CLR,,0.00,WeatherDisplay:10.37,2013-07-13 09:18:00,
2013-07-13 04:23:00,71.1,64.2,29.85,NE,45,0.0,0.0,79,0.00,CLR,,0.00,WeatherDisplay:10.37,2013-07-13 09:23:00,
2013-07-13 04:28:00,71.1,64.2,29.85,NNE,22,1.1,0.0,79,0.00,CLR,,0.00,WeatherDisplay:10.37,2013-07-13 09:28:00,
2013-07-13 04:33:00,70.9,64.4,29.85,NNE,22,0.0,0.0,80,0.00,CLR,,0.00,WeatherDisplay:10.37,2013-07-13 09:33:00,
2013-07-13 04:38:00,70.7,64.2,29.85,North,0,0.0,0.0,80,0.00,CLR,,0.00,WeatherDisplay:10.37,2013-07-13 09:38:00,
2013-07-13 04:43:00,70.5,64.0,29.85,North,0,1.1,0.0,80,0.00,CLR,,0.00,WeatherDisplay:10.37,2013-07-13 09:43:00,
2013-07-13 04:48:00,70.3,64.2,29.85,North,0,0.0,0.0,81,0.00,CLR,,0.00,WeatherDisplay:10.37,2013-07-13 09:48:00,
2013-07-13 04:53:00,70.3,64.2,29.85,North,0,1.1,0.0,81,0.00,CLR,,0.00,WeatherDisplay:10.37,2013-07-13 09:53:00,
2013-07-13 04:58:00,70.2,64.4,29.85,North,0,0.0,0.0,82,0.00,CLR,,0.00,WeatherDisplay:10.37,2013-07-13 09:58:00,
2013-07-13 05:03:00,70.2,64.8,29.85,North,0,0.0,0.0,83,0.00,CLR,,0.00,WeatherDisplay:10.37,2013-07-13 10:03:00,
2013-07-13 05:08:00,70.0,64.6,29.85,North,0,0.0,0.0,83,0.00,CLR,,0.00,WeatherDisplay:10.37,2013-07-13 10:08:00,
2013-07-13 05:13:00,70.0,64.9,29.85,North,0,0.0,0.0,84,0.00,CLR,,0.00,WeatherDisplay:10.37,2013-07-13 10:13:00,
2013-07-13 05:18:00,70.0,64.9,29.85,North,0,0.0,0.0,84,0.00,CLR,,0.00,WeatherDisplay:10.37,2013-07-13 10:18:00,
2013-07-13 05:23:00,69.8,65.1,29.85,NNW,338,0.0,0.0,85,0.00,CLR,,0.00,WeatherDisplay:10.37,2013-07-13 10:23:00,
2013-07-13 05:28:00,69.8,65.1,29.85,SSW,202,0.0,0.0,85,0.00,CLR,,0.00,WeatherDisplay:10.37,2013-07-13 10:28:00,
2013-07-13 05:33:00,69.6,64.9,29.85,SSW,202,0.0,0.0,85,0.00,CLR,,0.00,WeatherDisplay:10.37,2013-07-13 10:33:00,
2013-07-13 05:38:00,69.6,64.9,29.85,SSW,202,0.0,0.0,85,0.00,CLR,,0.00,WeatherDisplay:10.37,2013-07-13 10:38:00,
2013-07-13 05:44:00,69.6,64.9,29.88,SSW,202,0.0,0.0,85,0.00,CLR,,0.00,WeatherDisplay:10.37,2013-07-13 10:44:00,
2013-07-13 05:49:00,69.6,65.2,29.88,SSW,202,0.0,0.0,86,0.00,CLR,,0.00,WeatherDisplay:10.37,2013-07-13 10:49:00,
2013-07-13 05:54:00,69.6,65.2,29.88,SSW,202,0.0,0.0,86,0.00,CLR,,0.00,WeatherDisplay:10.37,2013-07-13 10:54:00,
2013-07-13 05:59:00,69.6,65.2,29.88,SSW,202,0.0,0.0,86,0.00,CLR,,0.00,WeatherDisplay:10.37,2013-07-13 10:59:00,
2013-07-13 06:04:00,69.4,65.1,29.88,SSW,202,0.0,0.0,86,0.00,CLR,,0.00,WeatherDisplay:10.37,2013-07-13 11:04:00,
2013-07-13 06:09:00,69.4,65.4,29.88,North,0,1.6,1.6,87,0.00,CLR,,0.00,WeatherDisplay:10.37,2013-07-13 11:09:00,
2013-07-13 06:14:00,69.6,65.6,29.88,NNW,338,2.3,2.3,87,0.00,CLR,,0.00,WeatherDisplay:10.37,2013-07-13 11:14:00,
2013-07-13 06:19:00,69.6,65.6,29.88,North,0,0.0,0.0,87,0.00,CLR,,0.00,WeatherDisplay:10.37,2013-07-13 11:19:00,
2013-07-13 06:24:00,69.6,65.6,29.88,NW,315,2.3,2.3,87,0.00,CLR,,0.00,WeatherDisplay:10.37,2013-07-13 11:24:00,
2013-07-13 06:29:00,69.8,65.8,29.91,North,0,2.3,2.3,87,0.00,CLR,,0.00,WeatherDisplay:10.37,2013-07-13 11:29:00,
2013-07-13 06:34:00,69.8,65.8,29.91,NNW,338,1.1,1.1,87,0.00,CLR,,0.00,WeatherDisplay:10.37,2013-07-13 11:34:00,
2013-07-13 06:39:00,70.2,66.1,29.91,NNE,22,2.3,2.3,87,0.00,CLR,,0.00,WeatherDisplay:10.37,2013-07-13 11:39:00,
2013-07-13 06:44:00,70.9,66.8,29.88,North,0,2.3,2.3,87,0.00,CLR,,0.00,WeatherDisplay:10.37,2013-07-13 11:44:00,
2013-07-13 06:49:00,71.4,67.0,29.88,SSE,158,2.3,2.3,86,0.00,CLR,,0.00,WeatherDisplay:10.37,2013-07-13 11:49:00,
2013-07-13 06:54:00,71.8,67.0,29.88,NW,315,2.3,2.3,85,0.00,CLR,,0.00,WeatherDisplay:10.37,2013-07-13 11:54:00,
2013-07-13 06:59:00,72.1,67.0,29.91,NW,315,0.0,0.0,84,0.00,CLR,,0.00,WeatherDisplay:10.37,2013-07-13 11:59:00,
2013-07-13 07:04:00,72.1,66.7,29.91,North,0,1.1,0.0,83,0.00,CLR,,0.00,WeatherDisplay:10.37,2013-07-13 12:04:00,
2013-07-13 07:09:00,72.1,66.3,29.91,NNE,22,2.3,2.3,82,0.00,CLR,,0.00,WeatherDisplay:10.37,2013-07-13 12:09:00,
2013-07-13 07:14:00,72.1,66.3,29.91,NNE,22,2.3,2.3,82,0.00,CLR,,0.00,WeatherDisplay:10.37,2013-07-13 12:14:00,
2013-07-13 07:19:00,72.3,66.2,29.91,NW,315,1.1,0.0,81,0.00,CLR,,0.00,WeatherDisplay:10.37,2013-07-13 12:19:00,
2013-07-13 07:24:00,72.5,66.3,29.91,NW,315,1.1,0.0,81,0.00,CLR,,0.00,WeatherDisplay:10.37,2013-07-13 12:24:00,
2013-07-13 07:29:00,74.7,68.8,29.91,West,270,1.1,1.1,82,0.00,CLR,,0.00,WeatherDisplay:10.37,2013-07-13 12:29:00,
2013-07-13 07:34:00,74.5,67.5,29.91,NW,315,1.4,1.4,79,0.00,CLR,,0.00,WeatherDisplay:10.37,2013-07-13 12:34:00,
2013-07-13 07:39:00,74.1,66.4,29.91,NW,315,0.0,0.0,77,0.00,CLR,,0.00,WeatherDisplay:10.37,2013-07-13 12:39:00,
2013-07-13 07:44:00,73.9,66.3,29.91,West,270,1.1,0.0,77,0.00,CLR,,0.00,WeatherDisplay:10.37,2013-07-13 12:44:00,
2013-07-13 07:49:00,75.0,67.7,29.91,SSE,158,3.5,3.5,78,0.00,CLR,,0.00,WeatherDisplay:10.37,2013-07-13 12:49:00,
2013-07-13 07:54:00,76.8,69.4,29.91,SSE,158,1.1,0.0,78,0.00,CLR,,0.00,WeatherDisplay:10.37,2013-07-13 12:54:00,
2013-07-13 07:59:00,80.4,72.5,29.91,ENE,68,1.4,1.4,77,0.00,CLR,,0.00,WeatherDisplay:10.37,2013-07-13 12:59:00,
2013-07-13 08:04:00,82.8,73.2,29.91,South,180,3.5,3.5,73,0.00,CLR,,0.00,WeatherDisplay:10.37,2013-07-13 13:04:00,
2013-07-13 08:09:00,84.7,73.0,29.91,South,180,1.1,0.0,68,0.00,CLR,,0.00,WeatherDisplay:10.37,2013-07-13 13:09:00,
2013-07-13 08:14:00,86.5,73.4,29.91,NNW,338,1.1,1.1,65,0.00,CLR,,0.00,WeatherDisplay:10.37,2013-07-13 13:14:00,
2013-07-13 08:19:00,87.1,66.8,29.91,NE,45,2.4,2.4,51,0.00,CLR,,0.00,WeatherDisplay:10.37,2013-07-13 13:19:00,
2013-07-13 08:24:00,88.0,65.8,29.91,NW,315,3.5,3.5,48,0.00,CLR,,0.00,WeatherDisplay:10.37,2013-07-13 13:24:00,
2013-07-13 08:29:00,88.7,61.3,29.91,North,0,4.6,4.6,40,0.00,CLR,,0.00,WeatherDisplay:10.37,2013-07-13 13:29:00,
2013-07-13 08:34:00,89.1,60.1,29.91,North,0,4.6,4.6,38,0.00,CLR,,0.00,WeatherDisplay:10.37,2013-07-13 13:34:00,
2013-07-13 08:39:00,89.4,60.5,29.91,North,0,4.0,4.0,38,0.00,CLR,,0.00,WeatherDisplay:10.37,2013-07-13 13:39:00,
2013-07-13 08:44:00,90.0,58.6,29.91,NNE,22,5.8,5.8,35,0.00,CLR,,0.00,WeatherDisplay:10.37,2013-07-13 13:44:00,
2013-07-13 08:49:00,90.1,57.2,29.91,North,0,4.6,4.6,33,0.00,CLR,,0.00,WeatherDisplay:10.37,2013-07-13 13:49:00,
2013-07-13 08:54:00,90.7,57.6,29.91,North,0,3.5,3.5,33,0.00,CLR,,0.00,WeatherDisplay:10.37,2013-07-13 13:54:00,
2013-07-13 08:59:00,90.9,56.9,29.88,North,0,3.8,3.8,32,0.00,CLR,,0.00,WeatherDisplay:10.37,2013-07-13 13:59:00,
2013-07-13 09:04:00,91.4,57.4,29.88,NNE,22,2.4,2.4,32,0.00,CLR,,0.00,WeatherDisplay:10.37,2013-07-13 14:04:00,
2013-07-13 09:09:00,91.6,55.8,29.88,North,0,4.6,4.6,30,0.00,CLR,,0.00,WeatherDisplay:10.37,2013-07-13 14:09:00,
2013-07-13 09:14:00,92.5,57.4,29.91,NNW,338,4.6,4.6,31,0.00,CLR,,0.00,WeatherDisplay:10.37,2013-07-13 14:14:00,
2013-07-13 09:19:00,92.7,56.7,29.91,NE,45,4.6,4.6,30,0.00,CLR,,0.00,WeatherDisplay:10.37,2013-07-13 14:19:00,
2013-07-13 09:24:00,93.0,57.0,29.91,NW,315,3.5,3.5,30,0.00,CLR,,0.00,WeatherDisplay:10.37,2013-07-13 14:24:00,
2013-07-13 09:29:00,93.4,57.3,29.91,NNE,22,2.3,2.3,30,0.00,CLR,,0.00,WeatherDisplay:10.37,2013-07-13 14:29:00,
2013-07-13 09:34:00,94.1,57.9,29.91,NE,45,2.9,2.9,30,0.00,CLR,,0.00,WeatherDisplay:10.37,2013-07-13 14:34:00,
2013-07-13 09:39:00,94.6,56.5,29.91,North,0,4.6,4.6,28,0.00,CLR,,0.00,WeatherDisplay:10.37,2013-07-13 14:39:00,
2013-07-13 09:44:00,94.6,57.5,29.91,North,0,2.3,2.4,29,0.00,CLR,,0.00,WeatherDisplay:10.37,2013-07-13 14:44:00,
2013-07-13 09:49:00,95.0,56.8,29.91,NNW,338,3.6,3.6,28,0.00,CLR,,0.00,WeatherDisplay:10.37,2013-07-13 14:49:00,
2013-07-13 09:54:00,95.2,56.9,29.91,North,0,3.8,3.8,28,0.00,CLR,,0.00,WeatherDisplay:10.37,2013-07-13 14:54:00,
2013-07-13 09:59:00,95.4,57.1,29.91,North,0,5.8,5.8,28,0.00,CLR,,0.00,WeatherDisplay:10.37,2013-07-13 14:59:00,
2013-07-13 10:04:00,95.4,56.1,29.91,NNE,22,5.8,5.8,27,0.00,CLR,,0.00,WeatherDisplay:10.37,2013-07-13 15:04:00,
2013-07-13 10:09:00,95.5,57.2,29.91,NNE,22,2.6,2.6,28,0.00,CLR,,0.00,WeatherDisplay:10.37,2013-07-13 15:09:00,
2013-07-13 10:14:00,96.3,57.9,29.91,North,0,1.4,0.0,28,0.00,CLR,,0.00,WeatherDisplay:10.37,2013-07-13 15:14:00,
2013-07-13 10:19:00,96.6,57.2,29.91,NNW,338,5.8,5.8,27,0.00,CLR,,0.00,WeatherDisplay:10.37,2013-07-13 15:19:00,
2013-07-13 10:24:00,96.4,57.0,29.91,North,0,3.5,3.5,27,0.00,CLR,,0.00,WeatherDisplay:10.37,2013-07-13 15:24:00,
2013-07-13 10:29:00,96.1,56.7,29.88,North,0,4.6,4.6,27,0.00,CLR,,0.00,WeatherDisplay:10.37,2013-07-13 15:29:00,
2013-07-13 10:34:00,95.9,56.5,29.88,NNW,338,6.9,6.9,27,0.00,CLR,,0.00,WeatherDisplay:10.37,2013-07-13 15:34:00,
2013-07-13 10:39:00,96.1,56.7,29.88,North,0,6.9,6.9,27,0.00,CLR,,0.00,WeatherDisplay:10.37,2013-07-13 15:39:00,
2013-07-13 10:44:00,96.1,57.7,29.88,North,0,5.8,5.8,28,0.00,CLR,,0.00,WeatherDisplay:10.37,2013-07-13 15:44:00,
2013-07-13 10:49:00,95.5,56.2,29.88,NNE,22,5.8,5.8,27,0.00,CLR,,0.00,WeatherDisplay:10.37,2013-07-13 15:49:00,
2013-07-13 10:54:00,96.1,56.7,29.88,ENE,68,3.1,3.1,27,0.00,CLR,,0.00,WeatherDisplay:10.37,2013-07-13 15:54:00,
2013-07-13 10:59:00,96.4,56.0,29.88,NNE,22,8.1,8.1,26,0.00,CLR,,0.00,WeatherDisplay:10.37,2013-07-13 15:59:00,
2013-07-13 11:04:00,96.4,57.0,29.88,NNW,338,5.6,5.6,27,0.00,CLR,,0.00,WeatherDisplay:10.37,2013-07-13 16:04:00,
2013-07-13 11:09:00,96.1,55.7,29.88,NNE,22,6.9,6.9,26,0.00,CLR,,0.00,WeatherDisplay:10.37,2013-07-13 16:09:00,
2013-07-13 11:14:00,96.1,54.6,29.88,ENE,68,5.8,5.8,25,0.00,CLR,,0.00,WeatherDisplay:10.37,2013-07-13 16:14:00,
2013-07-13 11:19:00,96.1,55.7,29.88,NNE,22,4.6,4.6,26,0.00,CLR,,0.00,WeatherDisplay:10.37,2013-07-13 16:19:00,
2013-07-13 11:24:00,96.1,54.6,29.88,NNW,338,6.9,6.9,25,0.00,CLR,,0.00,WeatherDisplay:10.37,2013-07-13 16:24:00,
2013-07-13 11:29:00,96.3,55.8,29.88,North,0,5.9,5.9,26,0.00,CLR,,0.00,WeatherDisplay:10.37,2013-07-13 16:29:00,
2013-07-13 11:34:00,95.4,51.7,29.88,SSE,158,2.3,2.3,23,0.00,CLR,,0.00,WeatherDisplay:10.37,2013-07-13 16:34:00,
2013-07-13 11:39:00,96.1,56.7,29.88,North,0,3.5,3.5,27,0.00,CLR,,0.00,WeatherDisplay:10.37,2013-07-13 16:39:00,
2013-07-13 11:45:00,97.0,54.2,29.88,North,0,2.3,2.4,24,0.00,CLR,,0.00,WeatherDisplay:10.37,2013-07-13 16:45:00,
2013-07-13 11:50:00,96.8,56.3,29.88,NNE,22,5.8,5.8,26,0.00,CLR,,0.00,WeatherDisplay:10.37,2013-07-13 16:50:00,
2013-07-13 11:55:00,94.1,50.6,29.88,North,0,3.5,3.5,23,0.00,CLR,,0.00,WeatherDisplay:10.37,2013-07-13 16:55:00,
2013-07-13 12:00:00,91.9,51.1,29.91,North,0,4.6,4.6,25,0.00,CLR,,0.00,WeatherDisplay:10.37,2013-07-13 17:00:00,
2013-07-13 12:05:00,91.2,52.6,29.91,NNE,22,4.6,4.6,27,0.00,CLR,,0.00,WeatherDisplay:10.37,2013-07-13 17:05:00,
2013-07-13 12:10:00,91.8,49.8,29.91,North,0,4.6,4.6,24,0.00,CLR,,0.00,WeatherDisplay:10.37,2013-07-13 17:10:00,
2013-07-13 12:15:00,92.7,53.8,29.88,North,0,4.6,5.9,27,0.00,CLR,,0.00,WeatherDisplay:10.37,2013-07-13 17:15:00,
2013-07-13 12:20:00,92.3,52.5,29.88,North,0,5.8,5.8,26,0.00,CLR,,0.00,WeatherDisplay:10.37,2013-07-13 17:20:00,
2013-07-13 12:25:00,92.8,52.9,29.88,North,0,3.8,3.8,26,0.00,CLR,,0.00,WeatherDisplay:10.37,2013-07-13 17:25:00,
2013-07-13 12:30:00,93.7,51.5,29.88,NNE,22,4.6,4.6,24,0.00,CLR,,0.00,WeatherDisplay:10.37,2013-07-13 17:30:00,
2013-07-13 12:35:00,93.4,51.2,29.88,NNE,22,3.8,3.8,24,0.00,CLR,,0.00,WeatherDisplay:10.37,2013-07-13 17:35:00,
2013-07-13 12:40:00,93.7,53.7,29.88,North,0,3.5,3.5,26,0.00,CLR,,0.00,WeatherDisplay:10.37,2013-07-13 17:40:00,
2013-07-13 12:45:00,94.3,50.8,29.88,WNW,292,5.8,5.8,23,0.00,CLR,,0.00,WeatherDisplay:10.37,2013-07-13 17:45:00,
2013-07-13 12:50:00,95.0,53.7,29.88,SSE,158,3.5,3.5,25,0.00,CLR,,0.00,WeatherDisplay:10.37,2013-07-13 17:50:00,
2013-07-13 12:55:00,95.4,50.5,29.88,NE,45,4.6,4.6,22,0.00,CLR,,0.00,WeatherDisplay:10.37,2013-07-13 17:55:00,
2013-07-13 13:00:00,94.8,51.2,29.88,North,0,3.5,3.5,23,0.00,CLR,,0.00,WeatherDisplay:10.37,2013-07-13 18:00:00,
2013-07-13 13:05:00,94.6,52.2,29.88,NW,315,4.6,4.6,24,0.00,CLR,,0.00,WeatherDisplay:10.37,2013-07-13 18:05:00,
2013-07-13 13:10:00,93.2,49.9,29.88,NNW,338,5.8,5.8,23,0.00,CLR,,0.00,WeatherDisplay:10.37,2013-07-13 18:10:00,
2013-07-13 13:15:00,92.8,50.7,29.88,NNW,338,3.5,3.5,24,0.00,CLR,,0.00,WeatherDisplay:10.37,2013-07-13 18:15:00,
2013-07-13 13:20:00,93.4,47.6,29.88,NNE,22,6.9,6.9,21,0.00,CLR,,0.00,WeatherDisplay:10.37,2013-07-13 18:20:00,
2013-07-13 13:25:00,93.4,52.3,29.88,North,0,4.6,4.6,25,0.00,CLR,,0.00,WeatherDisplay:10.37,2013-07-13 18:25:00,
2013-07-13 13:30:00,93.2,48.7,29.88,ENE,68,5.8,5.8,22,0.00,CLR,,0.00,WeatherDisplay:10.37,2013-07-13 18:30:00,
2013-07-13 13:35:00,93.0,49.7,29.88,North,0,5.8,5.8,23,0.00,CLR,,0.00,WeatherDisplay:10.37,2013-07-13 18:35:00,
2013-07-13 13:40:00,92.8,50.7,29.88,North,0,3.5,3.5,24,0.00,CLR,,0.00,WeatherDisplay:10.37,2013-07-13 18:40:00,
2013-07-13 13:45:00,92.8,48.4,29.85,ENE,68,1.4,1.4,22,0.00,CLR,,0.00,WeatherDisplay:10.37,2013-07-13 18:45:00,
2013-07-13 13:50:00,92.5,49.3,29.85,NNE,22,6.9,6.9,23,0.00,CLR,,0.00,WeatherDisplay:10.37,2013-07-13 18:50:00,
2013-07-13 13:55:00,91.6,50.8,29.85,North,0,6.9,6.9,25,0.00,CLR,,0.00,WeatherDisplay:10.37,2013-07-13 18:55:00,
2013-07-13 14:00:00,91.9,53.2,29.85,North,0,3.5,3.6,27,0.00,CLR,,0.00,WeatherDisplay:10.37,2013-07-13 19:00:00,
2013-07-13 14:05:00,91.4,51.7,29.85,NNE,22,6.2,6.2,26,0.00,CLR,,0.00,WeatherDisplay:10.37,2013-07-13 19:05:00,
2013-07-13 14:10:00,91.4,51.7,29.85,NE,45,3.5,3.5,26,0.00,CLR,,0.00,WeatherDisplay:10.37,2013-07-13 19:10:00,
2013-07-13 14:15:00,91.2,50.5,29.85,NNE,22,5.8,5.8,25,0.00,CLR,,0.00,WeatherDisplay:10.37,2013-07-13 19:15:00,
2013-07-13 14:20:00,91.6,48.5,29.85,North,0,8.1,8.1,23,0.00,CLR,,0.00,WeatherDisplay:10.37,2013-07-13 19:20:00,
2013-07-13 14:25:00,91.2,49.4,29.85,East,90,4.6,4.6,24,0.00,CLR,,0.00,WeatherDisplay:10.37,2013-07-13 19:25:00,
2013-07-13 14:30:00,91.0,49.2,29.85,North,0,3.5,3.5,24,0.00,CLR,,0.00,WeatherDisplay:10.37,2013-07-13 19:30:00,
2013-07-13 14:35:00,90.7,47.8,29.85,East,90,2.3,2.4,23,0.00,CLR,,0.00,WeatherDisplay:10.37,2013-07-13 19:35:00,
2013-07-13 14:40:00,90.7,52.1,29.85,North,0,5.8,5.8,27,0.00,CLR,,0.00,WeatherDisplay:10.37,2013-07-13 19:40:00,
2013-07-13 14:45:00,90.7,50.0,29.85,NNE,22,5.8,5.8,25,0.00,CLR,,0.00,WeatherDisplay:10.37,2013-07-13 19:45:00,
2013-07-13 14:50:00,90.9,49.1,29.85,NNE,22,3.5,3.5,24,0.00,CLR,,0.00,WeatherDisplay:10.37,2013-07-13 19:50:00,
2013-07-13 14:55:00,90.9,50.2,29.85,North,0,4.6,4.6,25,0.00,CLR,,0.00,WeatherDisplay:10.37,2013-07-13 19:55:00,
2013-07-13 15:00:00,90.7,50.0,29.85,North,0,5.8,5.8,25,0.00,CLR,,0.00,WeatherDisplay:10.37,2013-07-13 20:00:00,
2013-07-13 15:05:00,90.9,51.2,29.85,North,0,2.6,2.6,26,0.00,CLR,,0.00,WeatherDisplay:10.37,2013-07-13 20:05:00,
2013-07-13 15:10:00,90.9,52.3,29.85,North,0,4.6,4.6,27,0.00,CLR,,0.00,WeatherDisplay:10.37,2013-07-13 20:10:00,
2013-07-13 15:15:00,90.7,53.1,29.85,North,0,5.9,5.9,28,0.00,CLR,,0.00,WeatherDisplay:10.37,2013-07-13 20:15:00,
2013-07-13 15:20:00,90.3,51.8,29.85,North,0,2.9,2.9,27,0.00,CLR,,0.00,WeatherDisplay:10.37,2013-07-13 20:20:00,
2013-07-13 15:25:00,90.3,51.8,29.85,NW,315,3.5,3.5,27,0.00,CLR,,0.00,WeatherDisplay:10.37,2013-07-13 20:25:00,
2013-07-13 15:30:00,90.3,51.8,29.83,North,0,2.6,2.6,27,0.00,CLR,,0.00,WeatherDisplay:10.37,2013-07-13 20:30:00,
2013-07-13 15:35:00,90.5,52.0,29.83,North,0,2.6,2.6,27,0.00,CLR,,0.00,WeatherDisplay:10.37,2013-07-13 20:35:00,
2013-07-13 15:40:00,90.7,51.1,29.83,North,0,3.5,3.5,26,0.00,CLR,,0.00,WeatherDisplay:10.37,2013-07-13 20:40:00,
2013-07-13 15:45:00,90.7,52.1,29.83,ENE,68,3.5,3.5,27,0.00,CLR,,0.00,WeatherDisplay:10.37,2013-07-13 20:45:00,
2013-07-13 15:50:00,90.7,52.1,29.83,NNW,338,4.6,4.6,27,0.00,CLR,,0.00,WeatherDisplay:10.37,2013-07-13 20:50:00,
2013-07-13 15:55:00,90.5,52.0,29.83,North,0,2.3,2.3,27,0.00,CLR,,0.00,WeatherDisplay:10.37,2013-07-13 20:55:00,
2013-07-13 16:00:00,90.5,52.9,29.83,North,0,2.3,2.3,28,0.00,CLR,,0.00,WeatherDisplay:10.37,2013-07-13 21:00:00,
2013-07-13 16:05:00,90.5,52.0,29.83,North,0,2.6,2.6,27,0.00,CLR,,0.00,WeatherDisplay:10.37,2013-07-13 21:05:00,
2013-07-13 16:10:00,90.7,53.1,29.83,NNE,22,4.6,4.6,28,0.00,CLR,,0.00,WeatherDisplay:10.37,2013-07-13 21:10:00,
2013-07-13 16:15:00,90.9,52.3,29.83,NW,315,3.5,3.5,27,0.00,CLR,,0.00,WeatherDisplay:10.37,2013-07-13 21:15:00,
2013-07-13 16:20:00,90.9,53.3,29.83,North,0,3.6,3.6,28,0.00,CLR,,0.00,WeatherDisplay:10.37,2013-07-13 21:20:00,
2013-07-13 16:25:00,90.7,53.1,29.83,NNE,22,4.6,4.6,28,0.00,CLR,,0.00,WeatherDisplay:10.37,2013-07-13 21:25:00,
2013-07-13 16:30:00,90.5,50.9,29.83,NNE,22,5.8,5.8,26,0.00,CLR,,0.00,WeatherDisplay:10.37,2013-07-13 21:30:00,
2013-07-13 16:35:00,90.1,52.6,29.83,North,0,4.6,4.6,28,0.00,CLR,,0.00,WeatherDisplay:10.37,2013-07-13 21:35:00,
2013-07-13 16:40:00,90.1,52.6,29.83,North,0,3.1,3.1,28,0.00,CLR,,0.00,WeatherDisplay:10.37,2013-07-13 21:40:00,
2013-07-13 16:41:00,90.1,52.6,29.83,NNW,338,2.4,2.4,28,0.00,CLR,,0.00,WeatherDisplay:10.37,2013-07-13 21:41:00,
2013-07-13 16:46:00,89.8,52.3,29.83,NW,315,3.5,3.5,28,0.00,CLR,,0.00,WeatherDisplay:10.37,2013-07-13 21:46:00,
2013-07-13 16:51:00,89.6,52.2,29.83,NNE,22,3.5,3.5,28,0.00,CLR,,0.00,WeatherDisplay:10.37,2013-07-13 21:51:00,
2013-07-13 16:56:00,89.2,52.8,29.83,North,0,3.5,3.5,29,0.00,CLR,,0.00,WeatherDisplay:10.37,2013-07-13 21:56:00,
2013-07-13 17:01:00,89.1,52.7,29.83,North,0,3.6,3.6,29,0.00,CLR,,0.00,WeatherDisplay:10.37,2013-07-13 22:01:00,
2013-07-13 17:41:00,86.9,54.3,29.83,North,0,2.3,2.3,33,0.00,CLR,,0.00,WeatherDisplay:10.37,2013-07-13 22:41:00,
2013-07-13 17:46:00,86.5,54.8,29.83,North,0,2.3,2.3,34,0.00,CLR,,0.00,WeatherDisplay:10.37,2013-07-13 22:46:00,
2013-07-13 17:51:00,86.2,54.5,29.83,North,0,2.3,2.3,34,0.00,CLR,,0.00,WeatherDisplay:10.37,2013-07-13 22:51:00,
2013-07-13 17:56:00,85.8,55.0,29.83,North,0,2.3,2.3,35,0.00,CLR,,0.00,WeatherDisplay:10.37,2013-07-13 22:56:00,
2013-07-13 18:02:00,85.6,55.6,29.83,North,0,2.6,2.6,36,0.00,CLR,,0.00,WeatherDisplay:10.37,2013-07-13 23:02:00,
2013-07-13 18:07:00,85.1,57.4,29.83,NNW,338,2.6,2.6,39,0.00,CLR,,0.00,WeatherDisplay:10.37,2013-07-13 23:07:00,
2013-07-13 18:37:00,83.5,58.6,29.83,North,0,2.2,2.2,43,0.00,CLR,,0.00,WeatherDisplay:10.37,2013-07-13 23:37:00,
2013-07-13 18:42:00,83.1,59.6,29.83,NW,315,2.3,2.3,45,0.00,CLR,,0.00,WeatherDisplay:10.37,2013-07-13 23:42:00,
2013-07-13 18:47:00,82.8,58.6,29.83,North,0,3.5,3.5,44,0.00,CLR,,0.00,WeatherDisplay:10.37,2013-07-13 23:47:00,
2013-07-13 18:52:00,82.6,59.1,29.83,North,0,2.3,2.4,45,0.00,CLR,,0.00,WeatherDisplay:10.37,2013-07-13 23:52:00,
2013-07-13 18:57:00,82.4,59.5,29.83,North,0,3.5,3.5,46,0.00,CLR,,0.00,WeatherDisplay:10.37,2013-07-13 23:57:00,
2013-07-13 19:02:00,82.0,59.8,29.83,North,0,2.3,2.3,47,0.00,CLR,,0.00,WeatherDisplay:10.37,2013-07-14 00:02:00,
2013-07-13 19:07:00,82.0,59.8,29.83,North,0,2.3,2.3,47,0.00,CLR,,0.00,WeatherDisplay:10.37,2013-07-14 00:07:00,
2013-07-13 19:13:00,81.7,60.1,29.83,North,0,1.6,1.6,48,0.00,CLR,,0.00,WeatherDisplay:10.37,2013-07-14 00:13:00,
2013-07-13 19:18:00,81.5,59.9,29.83,NNW,338,2.0,2.0,48,0.00,CLR,,0.00,WeatherDisplay:10.37,2013-07-14 00:18:00,
2013-07-13 19:23:00,81.3,59.8,29.83,North,0,1.1,1.1,48,0.00,CLR,,0.00,WeatherDisplay:10.37,2013-07-14 00:23:00,
2013-07-13 19:37:00,81.0,59.4,29.83,North,0,3.5,3.5,48,0.00,CLR,,0.00,WeatherDisplay:10.37,2013-07-14 00:37:00,
2013-07-13 19:40:00,81.0,59.4,29.83,North,0,3.5,3.5,48,0.00,CLR,,0.00,WeatherDisplay:10.37,2013-07-14 00:40:00,
2013-07-13 19:45:00,81.0,59.4,29.83,North,0,3.5,3.5,48,0.00,CLR,,0.00,WeatherDisplay:10.37,2013-07-14 00:45:00,
2013-07-13 20:19:00,79.5,60.9,29.85,North,0,3.1,3.1,53,0.00,CLR,,0.00,WeatherDisplay:10.37,2013-07-14 01:19:00,
2013-07-13 20:24:00,79.5,61.4,29.85,NNE,22,2.3,2.3,54,0.00,CLR,,0.00,WeatherDisplay:10.37,2013-07-14 01:24:00,
2013-07-13 20:29:00,79.3,61.2,29.85,NNW,338,2.6,2.6,54,0.00,CLR,,0.00,WeatherDisplay:10.37,2013-07-14 01:29:00,
2013-07-13 20:34:00,79.2,61.6,29.85,NNE,22,3.5,3.5,55,0.00,CLR,,0.00,WeatherDisplay:10.37,2013-07-14 01:34:00,
2013-07-13 21:36:00,77.9,63.8,29.85,North,0,2.3,2.3,62,0.00,CLR,,0.00,WeatherDisplay:10.37,2013-07-14 02:36:00,
2013-07-13 21:41:00,77.7,64.6,29.85,East,90,2.4,2.4,64,0.00,CLR,,0.00,WeatherDisplay:10.37,2013-07-14 02:41:00,
2013-07-13 21:46:00,77.5,64.4,29.88,NNW,338,2.3,2.3,64,0.00,CLR,,0.00,WeatherDisplay:10.37,2013-07-14 02:46:00,
2013-07-13 21:51:00,77.4,64.7,29.88,NNE,22,4.6,4.6,65,0.00,CLR,,0.00,WeatherDisplay:10.37,2013-07-14 02:51:00,
2013-07-13 21:56:00,77.4,64.7,29.88,NNE,22,3.1,3.1,65,0.00,CLR,,0.00,WeatherDisplay:10.37,2013-07-14 02:56:00,
2013-07-13 22:01:00,77.2,64.5,29.85,NE,45,4.6,4.6,65,0.00,CLR,,0.00,WeatherDisplay:10.37,2013-07-14 03:01:00,
2013-07-13 22:06:00,77.2,64.5,29.85,NNW,338,2.3,2.3,65,0.00,CLR,,0.00,WeatherDisplay:10.37,2013-07-14 03:06:00,
2013-07-13 22:11:00,77.2,64.5,29.85,North,0,2.6,2.6,65,0.00,CLR,,0.00,WeatherDisplay:10.37,2013-07-14 03:11:00,
2013-07-13 22:16:00,77.0,63.9,29.85,North,0,3.5,3.5,64,0.00,CLR,,0.00,WeatherDisplay:10.37,2013-07-14 03:16:00,
2013-07-13 22:21:00,77.0,63.9,29.85,North,0,2.4,2.4,64,0.00,CLR,,0.00,WeatherDisplay:10.37,2013-07-14 03:21:00,
2013-07-13 22:27:00,76.8,64.6,29.85,NW,315,2.3,2.3,66,0.00,CLR,,0.00,WeatherDisplay:10.37,2013-07-14 03:27:00,
2013-07-13 22:32:00,76.6,64.4,29.85,North,0,2.3,2.6,66,0.00,CLR,,0.00,WeatherDisplay:10.37,2013-07-14 03:32:00,
2013-07-13 22:37:00,76.6,64.4,29.85,North,0,4.6,4.6,66,0.00,CLR,,0.00,WeatherDisplay:10.37,2013-07-14 03:37:00,
2013-07-13 22:42:00,76.5,64.3,29.85,North,0,3.5,3.5,66,0.00,CLR,,0.00,WeatherDisplay:10.37,2013-07-14 03:42:00,
2013-07-13 22:47:00,76.3,64.1,29.85,North,0,3.5,3.5,66,0.00,CLR,,0.00,WeatherDisplay:10.37,2013-07-14 03:47:00,
2013-07-13 22:52:00,76.1,63.9,29.85,North,0,4.0,4.0,66,0.00,CLR,,0.00,WeatherDisplay:10.37,2013-07-14 03:52:00,
2013-07-13 22:57:00,76.1,64.3,29.85,North,0,4.6,4.6,67,0.00,CLR,,0.00,WeatherDisplay:10.37,2013-07-14 03:57:00,
2013-07-13 23:01:00,76.1,64.3,29.85,North,0,5.8,5.8,67,0.00,CLR,,0.00,WeatherDisplay:10.37,2013-07-14 04:01:00,
2013-07-13 23:02:00,76.1,64.8,29.85,NNE,22,4.6,4.6,68,0.00,CLR,,0.00,WeatherDisplay:10.37,2013-07-14 04:02:00,
2013-07-13 23:07:00,76.1,64.8,29.85,North,0,4.7,4.7,68,0.00,CLR,,0.00,WeatherDisplay:10.37,2013-07-14 04:07:00,
2013-07-13 23:12:00,76.1,64.8,29.85,NNW,338,3.5,3.5,68,0.00,CLR,,0.00,WeatherDisplay:10.37,2013-07-14 04:12:00,
2013-07-13 23:17:00,76.1,64.3,29.91,SSE,158,2.4,2.4,67,0.00,CLR,,0.00,WeatherDisplay:10.37,2013-07-14 04:17:00,
2013-07-13 23:22:00,75.9,64.2,29.91,NW,315,2.3,2.3,67,0.00,CLR,,0.00,WeatherDisplay:10.37,2013-07-14 04:22:00,
2013-07-13 23:27:00,75.9,64.6,29.91,North,0,3.5,3.5,68,0.00,CLR,,0.00,WeatherDisplay:10.37,2013-07-14 04:27:00,
2013-07-13 23:32:00,75.7,64.4,29.91,NNE,22,3.5,3.5,68,0.00,CLR,,0.00,WeatherDisplay:10.37,2013-07-14 04:32:00,
2013-07-13 23:37:00,75.7,64.4,29.91,NNE,22,4.3,4.3,68,0.00,CLR,,0.00,WeatherDisplay:10.37,2013-07-14 04:37:00,
2013-07-13 23:42:00,75.6,64.3,29.91,NE,45,3.1,3.1,68,0.00,CLR,,0.00,WeatherDisplay:10.37,2013-07-14 04:42:00,
2013-07-13 23:47:00,75.6,64.3,29.88,North,0,3.5,3.5,68,0.00,CLR,,0.00,WeatherDisplay:10.37,2013-07-14 04:47:00,
2013-07-13 23:52:00,75.6,64.3,29.88,North,0,3.5,3.5,68,0.00,CLR,,0.00,WeatherDisplay:10.37,2013-07-14 04:52:00,
2013-07-13 23:57:00,75.6,64.3,29.88,North,0,4.6,4.6,68,0.00,CLR,,0.00,WeatherDisplay:10.37,2013-07-14 04:57:00,